createdAt,value
2016-12-12T00:00:04.847Z,1016.91
2016-12-12T00:01:15.846Z,1016.88
2016-12-12T00:02:26.837Z,1016.95
2016-12-12T00:03:37.822Z,1016.94
2016-12-12T00:04:48.816Z,1016.93
2016-12-12T00:05:59.856Z,1016.95
2016-12-12T00:07:11.049Z,1016.99
2016-12-12T00:08:22.041Z,1016.97
2016-12-12T00:09:33.029Z,1016.99
2016-12-12T00:10:44.053Z,1017.01
2016-12-12T00:11:55.297Z,1017.04
2016-12-12T00:13:06.287Z,1017.01
2016-12-12T00:14:17.270Z,1017.03
2016-12-12T00:15:28.258Z,1017.05
2016-12-12T00:16:39.244Z,1017.07
2016-12-12T00:17:50.279Z,1017.07
2016-12-12T00:19:01.268Z,1017.14
2016-12-12T00:20:12.253Z,1017.13
2016-12-12T00:21:23.252Z,1017.14
2016-12-12T00:22:34.234Z,1017.17
2016-12-12T00:23:45.472Z,1017.19
2016-12-12T00:24:56.461Z,1017.18
2016-12-12T00:26:07.651Z,1017.19
2016-12-12T00:27:18.641Z,1017.19
2016-12-12T00:28:29.856Z,1017.22
2016-12-12T00:29:40.893Z,1017.25
2016-12-12T00:30:51.879Z,1017.26
2016-12-12T00:32:02.866Z,1017.26
2016-12-12T00:33:13.849Z,1017.31
2016-12-12T00:34:24.838Z,1017.27
2016-12-12T00:35:35.871Z,1017.33
2016-12-12T00:36:46.863Z,1017.38
2016-12-12T00:37:58.056Z,1017.35
2016-12-12T00:39:09.244Z,1017.37
2016-12-12T00:40:20.233Z,1017.39
2016-12-12T00:41:31.475Z,1017.36
2016-12-12T00:42:42.456Z,1017.37
2016-12-12T00:43:53.452Z,1017.42
2016-12-12T00:45:04.445Z,1017.4
2016-12-12T00:46:15.429Z,1017.43
2016-12-12T00:47:26.500Z,1017.43
2016-12-12T00:48:37.489Z,1017.46
2016-12-12T00:49:48.470Z,1017.39
2016-12-12T00:50:59.453Z,1017.48
2016-12-12T00:52:10.442Z,1017.46
2016-12-12T00:53:21.479Z,1017.45
2016-12-12T00:54:32.466Z,1017.49
2016-12-12T00:55:43.452Z,1017.48
2016-12-12T00:56:54.437Z,1017.49
2016-12-12T00:58:05.421Z,1017.48
2016-12-12T00:59:16.464Z,1017.46
2016-12-12T01:00:27.661Z,1017.51
2016-12-12T01:01:38.643Z,1017.48
2016-12-12T01:02:49.629Z,1017.45
2016-12-12T01:04:00.626Z,1017.5
2016-12-12T01:05:11.669Z,1017.54
2016-12-12T01:06:22.657Z,1017.53
2016-12-12T01:07:34.044Z,1017.58
2016-12-12T01:08:45.029Z,1017.54
2016-12-12T01:09:56.222Z,1017.56
2016-12-12T01:11:07.223Z,1017.56
2016-12-12T01:12:18.217Z,1017.59
2016-12-12T01:13:29.408Z,1017.55
2016-12-12T01:14:40.602Z,1017.6
2016-12-12T01:15:51.585Z,1017.6
2016-12-12T01:17:02.577Z,1017.66
2016-12-12T01:18:13.562Z,1017.63
2016-12-12T01:19:24.552Z,1017.66
2016-12-12T01:20:35.595Z,1017.65
2016-12-12T01:21:46.782Z,1017.59
2016-12-12T01:22:57.764Z,1017.58
2016-12-12T01:24:08.952Z,1017.59
2016-12-12T01:25:20.139Z,1017.62
2016-12-12T01:26:31.181Z,1017.6
2016-12-12T01:27:42.171Z,1017.58
2016-12-12T01:28:53.361Z,1017.58
2016-12-12T01:30:04.350Z,1017.63
2016-12-12T01:31:15.338Z,1017.62
2016-12-12T01:32:26.373Z,1017.6
2016-12-12T01:33:37.365Z,1017.61
2016-12-12T01:34:48.552Z,1017.57
2016-12-12T01:35:59.539Z,1017.62
2016-12-12T01:37:10.532Z,1017.62
2016-12-12T01:38:21.561Z,1017.61
2016-12-12T01:39:32.739Z,1017.63
2016-12-12T01:40:43.924Z,1017.65
2016-12-12T01:41:54.903Z,1017.66
2016-12-12T01:43:05.888Z,1017.62
2016-12-12T01:44:16.928Z,1017.63
2016-12-12T01:45:28.121Z,1017.63
2016-12-12T01:46:39.308Z,1017.63
2016-12-12T01:47:50.494Z,1017.64
2016-12-12T01:49:01.495Z,1017.65
2016-12-12T01:50:12.692Z,1017.63
2016-12-12T01:51:23.709Z,1017.59
2016-12-12T01:52:34.695Z,1017.57
2016-12-12T01:53:45.687Z,1017.59
2016-12-12T01:54:56.878Z,1017.61
2016-12-12T01:56:08.065Z,1017.6
2016-12-12T01:57:19.055Z,1017.61
2016-12-12T01:58:30.036Z,1017.64
2016-12-12T01:59:41.029Z,1017.66
2016-12-12T02:00:52.014Z,1017.65
2016-12-12T02:02:03.008Z,1017.68
2016-12-12T02:03:14.255Z,1017.66
2016-12-12T02:04:25.248Z,1017.66
2016-12-12T02:05:36.235Z,1017.72
2016-12-12T02:06:47.215Z,1017.68
2016-12-12T02:07:58.409Z,1017.68
2016-12-12T02:09:09.798Z,1017.69
2016-12-12T02:10:20.786Z,1017.68
2016-12-12T02:11:31.781Z,1017.67
2016-12-12T02:12:42.769Z,1017.68
2016-12-12T02:13:53.954Z,1017.66
2016-12-12T02:15:04.989Z,1017.67
2016-12-12T02:16:16.412Z,1017.66
2016-12-12T02:17:27.411Z,1017.71
2016-12-12T02:18:38.398Z,1017.69
2016-12-12T02:19:49.382Z,1017.73
2016-12-12T02:21:00.439Z,1017.71
2016-12-12T02:22:11.634Z,1017.76
2016-12-12T02:23:22.618Z,1017.77
2016-12-12T02:24:33.809Z,1017.75
2016-12-12T02:25:44.796Z,1017.72
2016-12-12T02:26:55.823Z,1017.75
2016-12-12T02:28:06.809Z,1017.76
2016-12-12T02:29:17.801Z,1017.81
2016-12-12T02:30:28.989Z,1017.78
2016-12-12T02:31:40.179Z,1017.79
2016-12-12T02:32:51.225Z,1017.83
2016-12-12T02:34:02.220Z,1017.77
2016-12-12T02:35:13.211Z,1017.82
2016-12-12T02:36:24.200Z,1017.8
2016-12-12T02:37:35.193Z,1017.79
2016-12-12T02:38:46.234Z,1017.75
2016-12-12T02:39:57.226Z,1017.85
2016-12-12T02:41:08.420Z,1017.87
2016-12-12T02:42:19.435Z,1017.89
2016-12-12T02:43:30.425Z,1017.93
2016-12-12T02:44:41.661Z,1017.9
2016-12-12T02:45:52.651Z,1017.93
2016-12-12T02:47:03.664Z,1017.96
2016-12-12T02:48:14.650Z,1017.91
2016-12-12T02:49:25.636Z,1017.95
2016-12-12T02:50:36.629Z,1017.91
2016-12-12T02:51:47.615Z,1017.89
2016-12-12T02:52:58.631Z,1017.91
2016-12-12T02:54:09.624Z,1017.9
2016-12-12T02:55:20.616Z,1017.89
2016-12-12T02:56:31.836Z,1017.84
2016-12-12T02:57:42.827Z,1017.89
2016-12-12T02:58:54.010Z,1017.92
2016-12-12T03:00:05.054Z,1017.92
2016-12-12T03:01:16.051Z,1017.94
2016-12-12T03:02:27.044Z,1017.96
2016-12-12T03:03:38.235Z,1017.98
2016-12-12T03:04:49.224Z,1017.96
2016-12-12T03:06:00.265Z,1017.94
2016-12-12T03:07:11.254Z,1018
2016-12-12T03:08:22.448Z,1018.02
2016-12-12T03:09:33.435Z,1018.01
2016-12-12T03:10:44.421Z,1018
2016-12-12T03:11:55.455Z,1017.96
2016-12-12T03:13:06.444Z,1018
2016-12-12T03:14:17.434Z,1018.04
2016-12-12T03:15:28.413Z,1018.03
2016-12-12T03:16:39.402Z,1018.02
2016-12-12T03:17:50.444Z,1018.01
2016-12-12T03:19:01.434Z,1018.04
2016-12-12T03:20:12.420Z,1017.99
2016-12-12T03:21:23.407Z,1017.99
2016-12-12T03:22:34.395Z,1017.98
2016-12-12T03:23:45.435Z,1017.98
2016-12-12T03:24:56.415Z,1017.97
2016-12-12T03:26:07.599Z,1017.93
2016-12-12T03:27:18.586Z,1017.95
2016-12-12T03:28:29.575Z,1017.99
2016-12-12T03:29:40.613Z,1018
2016-12-12T03:30:51.595Z,1018.05
2016-12-12T03:32:02.579Z,1018
2016-12-12T03:33:13.566Z,1018.02
2016-12-12T03:34:24.751Z,1018.04
2016-12-12T03:35:35.941Z,1018.04
2016-12-12T03:36:46.935Z,1018.02
2016-12-12T03:37:57.922Z,1018.02
2016-12-12T03:39:08.914Z,1018.05
2016-12-12T03:40:19.896Z,1018.05
2016-12-12T03:41:30.887Z,1018.06
2016-12-12T03:42:42.077Z,1018.13
2016-12-12T03:43:53.264Z,1018.11
2016-12-12T03:45:04.246Z,1018.11
2016-12-12T03:46:15.230Z,1018.11
2016-12-12T03:47:26.213Z,1018.09
2016-12-12T03:48:37.204Z,1018.11
2016-12-12T03:49:48.193Z,1018.08
2016-12-12T03:50:59.381Z,1018.04
2016-12-12T03:52:10.366Z,1018.12
2016-12-12T03:53:21.351Z,1018.1
2016-12-12T03:54:32.350Z,1018.08
2016-12-12T03:55:43.343Z,1018.09
2016-12-12T03:56:54.331Z,1018.12
2016-12-12T03:58:05.529Z,1018.13
2016-12-12T03:59:16.558Z,1018.1
2016-12-12T04:00:27.592Z,1018.15
2016-12-12T04:01:38.786Z,1018.1
2016-12-12T04:02:49.775Z,1018.1
2016-12-12T04:04:00.977Z,1018.12
2016-12-12T04:05:12.169Z,1018.09
2016-12-12T04:06:23.208Z,1018.09
2016-12-12T04:07:34.198Z,1018.11
2016-12-12T04:08:45.186Z,1018.14
2016-12-12T04:09:56.173Z,1018.11
2016-12-12T04:11:07.161Z,1018.13
2016-12-12T04:12:18.190Z,1018.16
2016-12-12T04:13:29.183Z,1018.19
2016-12-12T04:14:40.174Z,1018.21
2016-12-12T04:15:51.366Z,1018.21
2016-12-12T04:17:02.353Z,1018.2
2016-12-12T04:18:13.388Z,1018.23
2016-12-12T04:19:24.381Z,1018.23
2016-12-12T04:20:35.362Z,1018.24
2016-12-12T04:21:46.360Z,1018.24
2016-12-12T04:22:57.346Z,1018.28
2016-12-12T04:24:08.599Z,1018.26
2016-12-12T04:25:19.598Z,1018.24
2016-12-12T04:26:30.792Z,1018.26
2016-12-12T04:27:41.776Z,1018.26
2016-12-12T04:28:52.767Z,1018.26
2016-12-12T04:30:03.807Z,1018.26
2016-12-12T04:31:14.803Z,1018.28
2016-12-12T04:32:25.794Z,1018.27
2016-12-12T04:33:36.786Z,1018.32
2016-12-12T04:34:47.970Z,1018.28
2016-12-12T04:35:59.213Z,1018.28
2016-12-12T04:37:10.398Z,1018.28
2016-12-12T04:38:21.392Z,1018.32
2016-12-12T04:39:32.388Z,1018.31
2016-12-12T04:40:43.432Z,1018.29
2016-12-12T04:41:54.620Z,1018.31
2016-12-12T04:43:05.614Z,1018.29
2016-12-12T04:44:16.795Z,1018.32
2016-12-12T04:45:27.986Z,1018.35
2016-12-12T04:46:39.224Z,1018.33
2016-12-12T04:47:50.217Z,1018.31
2016-12-12T04:49:01.209Z,1018.32
2016-12-12T04:50:12.200Z,1018.35
2016-12-12T04:51:23.192Z,1018.34
2016-12-12T04:52:34.235Z,1018.36
2016-12-12T04:53:45.433Z,1018.35
2016-12-12T04:54:56.420Z,1018.35
2016-12-12T04:56:07.413Z,1018.34
2016-12-12T04:57:18.401Z,1018.33
2016-12-12T04:58:29.435Z,1018.34
2016-12-12T04:59:40.629Z,1018.35
2016-12-12T05:00:51.612Z,1018.33
2016-12-12T05:02:02.803Z,1018.36
2016-12-12T05:03:13.996Z,1018.35
2016-12-12T05:04:25.230Z,1018.32
2016-12-12T05:05:36.217Z,1018.32
2016-12-12T05:06:47.411Z,1018.31
2016-12-12T05:07:58.405Z,1018.33
2016-12-12T05:09:09.386Z,1018.3
2016-12-12T05:10:20.379Z,1018.33
2016-12-12T05:11:31.388Z,1018.33
2016-12-12T05:12:42.386Z,1018.33
2016-12-12T05:13:53.359Z,1018.3
2016-12-12T05:15:04.380Z,1018.38
2016-12-12T05:16:15.569Z,1018.33
2016-12-12T05:17:26.561Z,1018.36
2016-12-12T05:18:37.547Z,1018.29
2016-12-12T05:19:48.734Z,1018.33
2016-12-12T05:20:59.770Z,1018.37
2016-12-12T05:22:10.762Z,1018.36
2016-12-12T05:23:22.154Z,1018.36
2016-12-12T05:24:33.141Z,1018.37
2016-12-12T05:25:44.530Z,1018.36
2016-12-12T05:26:55.766Z,1018.37
2016-12-12T05:28:06.759Z,1018.4
2016-12-12T05:29:17.746Z,1018.4
2016-12-12T05:30:28.932Z,1018.41
2016-12-12T05:31:39.920Z,1018.49
2016-12-12T05:32:51.157Z,1018.43
2016-12-12T05:34:02.147Z,1018.48
2016-12-12T05:35:13.133Z,1018.49
2016-12-12T05:36:24.126Z,1018.52
2016-12-12T05:37:35.146Z,1018.54
2016-12-12T05:38:46.182Z,1018.56
2016-12-12T05:39:57.168Z,1018.55
2016-12-12T05:41:08.151Z,1018.57
2016-12-12T05:42:19.141Z,1018.61
2016-12-12T05:43:30.132Z,1018.59
2016-12-12T05:44:41.195Z,1018.57
2016-12-12T05:45:52.182Z,1018.56
2016-12-12T05:47:03.168Z,1018.57
2016-12-12T05:48:14.359Z,1018.59
2016-12-12T05:49:25.348Z,1018.59
2016-12-12T05:50:36.386Z,1018.59
2016-12-12T05:51:47.396Z,1018.59
2016-12-12T05:52:58.389Z,1018.66
2016-12-12T05:54:09.377Z,1018.65
2016-12-12T05:55:20.362Z,1018.63
2016-12-12T05:56:31.399Z,1018.63
2016-12-12T05:57:42.598Z,1018.66
2016-12-12T05:58:53.593Z,1018.65
2016-12-12T06:00:04.579Z,1018.7
2016-12-12T06:01:15.568Z,1018.77
2016-12-12T06:02:26.608Z,1018.76
2016-12-12T06:03:37.593Z,1018.73
2016-12-12T06:04:48.593Z,1018.79
2016-12-12T06:05:59.585Z,1018.81
2016-12-12T06:07:10.579Z,1018.81
2016-12-12T06:08:21.623Z,1018.87
2016-12-12T06:09:32.620Z,1018.89
2016-12-12T06:10:43.807Z,1018.89
2016-12-12T06:11:54.809Z,1018.87
2016-12-12T06:13:05.821Z,1018.93
2016-12-12T06:14:16.869Z,1018.95
2016-12-12T06:15:27.860Z,1018.93
2016-12-12T06:16:39.048Z,1018.97
2016-12-12T06:17:50.037Z,1019.02
2016-12-12T06:19:01.031Z,1019.02
2016-12-12T06:20:12.069Z,1019.02
2016-12-12T06:21:23.059Z,1019.01
2016-12-12T06:22:34.048Z,1019.06
2016-12-12T06:23:45.245Z,1019.1
2016-12-12T06:24:56.230Z,1019.13
2016-12-12T06:26:07.466Z,1019.11
2016-12-12T06:27:18.652Z,1019.1
2016-12-12T06:28:29.636Z,1019.1
2016-12-12T06:29:40.819Z,1019.09
2016-12-12T06:30:51.808Z,1019.11
2016-12-12T06:32:02.846Z,1019.16
2016-12-12T06:33:13.826Z,1019.13
2016-12-12T06:34:24.814Z,1019.14
2016-12-12T06:35:35.808Z,1019.18
2016-12-12T06:36:46.797Z,1019.18
2016-12-12T06:37:57.832Z,1019.21
2016-12-12T06:39:08.824Z,1019.26
2016-12-12T06:40:19.807Z,1019.22
2016-12-12T06:41:31.002Z,1019.24
2016-12-12T06:42:41.994Z,1019.27
2016-12-12T06:43:53.237Z,1019.3
2016-12-12T06:45:04.232Z,1019.32
2016-12-12T06:46:15.213Z,1019.38
2016-12-12T06:47:26.202Z,1019.34
2016-12-12T06:48:37.181Z,1019.37
2016-12-12T06:49:48.226Z,1019.41
2016-12-12T06:50:59.220Z,1019.35
2016-12-12T06:52:10.205Z,1019.42
2016-12-12T06:53:21.189Z,1019.45
2016-12-12T06:54:32.176Z,1019.47
2016-12-12T06:55:43.165Z,1019.5
2016-12-12T06:56:54.157Z,1019.51
2016-12-12T06:58:05.145Z,1019.47
2016-12-12T06:59:16.127Z,1019.55
2016-12-12T07:00:27.164Z,1019.53
2016-12-12T07:01:38.151Z,1019.54
2016-12-12T07:02:49.138Z,1019.58
2016-12-12T07:04:00.130Z,1019.58
2016-12-12T07:05:11.125Z,1019.6
2016-12-12T07:06:22.363Z,1019.6
2016-12-12T07:07:33.362Z,1019.61
2016-12-12T07:08:44.545Z,1019.67
2016-12-12T07:09:55.526Z,1019.64
2016-12-12T07:11:06.522Z,1019.6
2016-12-12T07:12:17.566Z,1019.64
2016-12-12T07:13:28.781Z,1019.62
2016-12-12T07:14:39.768Z,1019.6
2016-12-12T07:15:50.780Z,1019.56
2016-12-12T07:17:01.765Z,1019.56
2016-12-12T07:18:12.804Z,1019.6
2016-12-12T07:19:23.795Z,1019.62
2016-12-12T07:20:34.784Z,1019.56
2016-12-12T07:21:45.769Z,1019.63
2016-12-12T07:22:56.961Z,1019.66
2016-12-12T07:24:08.003Z,1019.64
2016-12-12T07:25:18.999Z,1019.68
2016-12-12T07:26:29.992Z,1019.66
2016-12-12T07:27:40.979Z,1019.67
2016-12-12T07:28:51.966Z,1019.68
2016-12-12T07:30:03.007Z,1019.68
2016-12-12T07:31:14.395Z,1019.71
2016-12-12T07:32:25.377Z,1019.74
2016-12-12T07:33:36.363Z,1019.76
2016-12-12T07:34:47.355Z,1019.74
2016-12-12T07:35:58.328Z,1019.78
2016-12-12T07:37:09.314Z,1019.82
2016-12-12T07:38:20.305Z,1019.82
2016-12-12T07:39:31.276Z,1019.82
2016-12-12T07:40:42.308Z,1019.81
2016-12-12T07:41:53.289Z,1019.87
2016-12-12T07:43:04.479Z,1019.84
2016-12-12T07:44:15.460Z,1019.86
2016-12-12T07:45:26.452Z,1019.86
2016-12-12T07:46:37.690Z,1019.91
2016-12-12T07:47:48.686Z,1019.92
2016-12-12T07:48:59.680Z,1019.95
2016-12-12T07:50:10.666Z,1019.94
2016-12-12T07:51:21.853Z,1019.97
2016-12-12T07:52:32.927Z,1020.02
2016-12-12T07:53:44.123Z,1020.07
2016-12-12T07:54:55.511Z,1020.09
2016-12-12T07:56:06.512Z,1020.1
2016-12-12T07:57:17.505Z,1020.09
2016-12-12T07:58:28.567Z,1020.15
2016-12-12T07:59:39.552Z,1020.13
2016-12-12T08:00:50.545Z,1020.16
2016-12-12T08:02:01.552Z,1020.15
2016-12-12T08:03:12.539Z,1020.16
2016-12-12T08:04:23.773Z,1020.16
2016-12-12T08:05:34.760Z,1020.12
2016-12-12T08:06:45.948Z,1020.2
2016-12-12T08:07:56.937Z,1020.21
2016-12-12T08:09:07.925Z,1020.23
2016-12-12T08:10:19.108Z,1020.23
2016-12-12T08:11:30.091Z,1020.28
2016-12-12T08:12:41.076Z,1020.31
2016-12-12T08:13:52.271Z,1020.34
2016-12-12T08:15:03.258Z,1020.4
2016-12-12T08:16:14.246Z,1020.39
2016-12-12T08:17:25.221Z,1020.42
2016-12-12T08:18:36.412Z,1020.41
2016-12-12T08:19:47.397Z,1020.4
2016-12-12T08:20:58.424Z,1020.42
2016-12-12T08:22:09.412Z,1020.4
2016-12-12T08:23:20.398Z,1020.4
2016-12-12T08:24:31.385Z,1020.43
2016-12-12T08:25:42.373Z,1020.42
2016-12-12T08:26:53.408Z,1020.43
2016-12-12T08:28:04.402Z,1020.44
2016-12-12T08:29:15.628Z,1020.43
2016-12-12T08:30:26.828Z,1020.47
2016-12-12T08:31:37.814Z,1020.43
2016-12-12T08:32:48.848Z,1020.46
2016-12-12T08:33:59.845Z,1020.47
2016-12-12T08:35:10.833Z,1020.46
2016-12-12T08:36:21.825Z,1020.52
2016-12-12T08:37:32.822Z,1020.49
2016-12-12T08:38:43.860Z,1020.5
2016-12-12T08:39:54.845Z,1020.48
2016-12-12T08:41:05.846Z,1020.48
2016-12-12T08:42:16.827Z,1020.46
2016-12-12T08:43:27.814Z,1020.47
2016-12-12T08:44:38.872Z,1020.51
2016-12-12T08:45:49.856Z,1020.49
2016-12-12T08:47:00.856Z,1020.5
2016-12-12T08:48:11.844Z,1020.5
2016-12-12T08:49:22.856Z,1020.49
2016-12-12T08:50:33.847Z,1020.53
2016-12-12T08:51:44.840Z,1020.54
2016-12-12T08:52:55.837Z,1020.58
2016-12-12T08:54:06.823Z,1020.59
2016-12-12T08:55:17.852Z,1020.6
2016-12-12T08:56:29.035Z,1020.62
2016-12-12T08:57:40.027Z,1020.63
2016-12-12T08:58:51.216Z,1020.7
2016-12-12T09:00:02.263Z,1020.7
2016-12-12T09:01:13.262Z,1020.68
2016-12-12T09:02:24.458Z,1020.71
2016-12-12T09:03:35.453Z,1020.68
2016-12-12T09:04:46.438Z,1020.7
2016-12-12T09:05:57.423Z,1020.72
2016-12-12T09:07:08.416Z,1020.77
2016-12-12T09:08:19.407Z,1020.77
2016-12-12T09:09:30.398Z,1020.78
2016-12-12T09:10:41.440Z,1020.79
2016-12-12T09:11:52.425Z,1020.82
2016-12-12T09:13:03.413Z,1020.83
2016-12-12T09:14:14.400Z,1020.83
2016-12-12T09:15:25.384Z,1020.85
2016-12-12T09:16:36.383Z,1020.87
2016-12-12T09:17:47.575Z,1020.89
2016-12-12T09:18:58.767Z,1020.93
2016-12-12T09:20:09.801Z,1020.91
2016-12-12T09:21:20.987Z,1020.93
2016-12-12T09:22:32.210Z,1020.97
2016-12-12T09:23:43.394Z,1020.97
2016-12-12T09:24:54.376Z,1021.01
2016-12-12T09:26:05.418Z,1020.98
2016-12-12T09:27:16.406Z,1020.96
2016-12-12T09:28:27.799Z,1020.92
2016-12-12T09:29:38.782Z,1021
2016-12-12T09:30:49.801Z,1020.97
2016-12-12T09:32:01.049Z,1020.96
2016-12-12T09:33:12.242Z,1020.98
2016-12-12T09:34:23.426Z,1020.94
2016-12-12T09:35:34.615Z,1020.97
2016-12-12T09:36:45.599Z,1020.99
2016-12-12T09:37:56.638Z,1020.97
2016-12-12T09:39:07.626Z,1021
2016-12-12T09:40:18.609Z,1021.01
2016-12-12T09:41:29.626Z,1021.03
2016-12-12T09:42:40.604Z,1021.03
2016-12-12T09:43:51.835Z,1021.04
2016-12-12T09:45:02.825Z,1021.07
2016-12-12T09:46:13.808Z,1021.04
2016-12-12T09:47:24.997Z,1021.06
2016-12-12T09:48:35.983Z,1021.02
2016-12-12T09:49:47.222Z,1021.01
2016-12-12T09:50:58.206Z,1021.03
2016-12-12T09:52:09.186Z,1021.04
2016-12-12T09:53:20.176Z,1021.04
2016-12-12T09:54:31.180Z,1021.03
2016-12-12T09:55:42.176Z,1021.07
2016-12-12T09:56:53.169Z,1021.04
2016-12-12T09:58:04.158Z,1021.01
2016-12-12T09:59:15.138Z,1021.04
2016-12-12T10:00:26.131Z,1021.02
2016-12-12T10:01:37.119Z,1021.09
2016-12-12T10:02:48.110Z,1021.07
2016-12-12T10:03:59.102Z,1021.05
2016-12-12T10:05:10.092Z,1021.03
2016-12-12T10:06:21.083Z,1020.97
2016-12-12T10:07:32.076Z,1021
2016-12-12T10:08:43.075Z,1021.01
2016-12-12T10:09:54.062Z,1021.02
2016-12-12T10:11:05.248Z,1021
2016-12-12T10:12:16.231Z,1020.99
2016-12-12T10:13:27.220Z,1021.01
2016-12-12T10:14:38.413Z,1021.01
2016-12-12T10:15:49.448Z,1021.01
2016-12-12T10:17:00.435Z,1021.01
2016-12-12T10:18:11.431Z,1021.03
2016-12-12T10:19:22.409Z,1021
2016-12-12T10:20:33.450Z,1021.04
2016-12-12T10:21:44.436Z,1021.04
2016-12-12T10:22:55.431Z,1021.04
2016-12-12T10:24:06.421Z,1021.01
2016-12-12T10:25:17.400Z,1021.04
2016-12-12T10:26:28.440Z,1021.02
2016-12-12T10:27:39.825Z,1021.03
2016-12-12T10:28:50.819Z,1021.05
2016-12-12T10:30:02.022Z,1021.06
2016-12-12T10:31:13.005Z,1021.05
2016-12-12T10:32:24.039Z,1021.08
2016-12-12T10:33:35.024Z,1021.08
2016-12-12T10:34:46.022Z,1021.12
2016-12-12T10:35:57.210Z,1021.08
2016-12-12T10:37:08.202Z,1021.1
2016-12-12T10:38:19.239Z,1021.12
2016-12-12T10:39:30.215Z,1021.12
2016-12-12T10:40:41.397Z,1021.15
2016-12-12T10:41:52.386Z,1021.19
2016-12-12T10:43:03.380Z,1021.17
2016-12-12T10:44:14.618Z,1021.17
2016-12-12T10:45:25.613Z,1021.17
2016-12-12T10:46:36.611Z,1021.21
2016-12-12T10:47:47.636Z,1021.2
2016-12-12T10:48:58.625Z,1021.17
2016-12-12T10:50:09.665Z,1021.19
2016-12-12T10:51:20.650Z,1021.2
2016-12-12T10:52:31.632Z,1021.2
2016-12-12T10:53:43.015Z,1021.21
2016-12-12T10:54:54.204Z,1021.19
2016-12-12T10:56:05.237Z,1021.22
2016-12-12T10:57:16.227Z,1021.24
2016-12-12T10:58:27.423Z,1021.26
2016-12-12T10:59:38.416Z,1021.25
2016-12-12T11:00:49.413Z,1021.32
2016-12-12T11:02:00.442Z,1021.26
2016-12-12T11:03:11.428Z,1021.27
2016-12-12T11:04:22.417Z,1021.27
2016-12-12T11:05:33.401Z,1021.3
2016-12-12T11:06:44.395Z,1021.29
2016-12-12T11:07:55.457Z,1021.29
2016-12-12T11:09:06.643Z,1021.29
2016-12-12T11:10:17.629Z,1021.28
2016-12-12T11:11:28.616Z,1021.29
2016-12-12T11:12:39.608Z,1021.31
2016-12-12T11:13:50.642Z,1021.29
2016-12-12T11:15:01.629Z,1021.33
2016-12-12T11:16:12.640Z,1021.29
2016-12-12T11:17:23.629Z,1021.34
2016-12-12T11:18:34.622Z,1021.39
2016-12-12T11:19:45.667Z,1021.34
2016-12-12T11:20:56.660Z,1021.36
2016-12-12T11:22:07.651Z,1021.38
2016-12-12T11:23:18.637Z,1021.39
2016-12-12T11:24:29.617Z,1021.38
2016-12-12T11:25:40.648Z,1021.37
2016-12-12T11:26:51.641Z,1021.39
2016-12-12T11:28:02.632Z,1021.37
2016-12-12T11:29:13.618Z,1021.35
2016-12-12T11:30:24.602Z,1021.3
2016-12-12T11:31:35.664Z,1021.37
2016-12-12T11:32:46.644Z,1021.35
2016-12-12T11:33:57.626Z,1021.35
2016-12-12T11:35:08.612Z,1021.25
2016-12-12T11:36:19.595Z,1021.26
2016-12-12T11:37:30.632Z,1021.3
2016-12-12T11:38:41.629Z,1021.24
2016-12-12T11:39:52.620Z,1021.24
2016-12-12T11:41:03.610Z,1021.2
2016-12-12T11:42:14.602Z,1021.21
2016-12-12T11:43:25.843Z,1021.2
2016-12-12T11:44:36.827Z,1021.22
2016-12-12T11:45:47.816Z,1021.19
2016-12-12T11:46:58.830Z,1021.2
2016-12-12T11:48:09.821Z,1021.18
2016-12-12T11:49:21.052Z,1021.18
2016-12-12T11:50:32.052Z,1021.17
2016-12-12T11:51:43.049Z,1021.22
2016-12-12T11:52:54.044Z,1021.22
2016-12-12T11:54:05.025Z,1021.23
2016-12-12T11:55:16.066Z,1021.22
2016-12-12T11:56:27.256Z,1021.16
2016-12-12T11:57:38.260Z,1021.18
2016-12-12T11:58:49.251Z,1021.22
2016-12-12T12:00:00.240Z,1021.2
2016-12-12T12:01:11.275Z,1021.24
2016-12-12T12:02:22.267Z,1021.25
2016-12-12T12:03:33.244Z,1021.27
2016-12-12T12:04:44.224Z,1021.26
2016-12-12T12:05:55.207Z,1021.29
2016-12-12T12:07:06.244Z,1021.29
2016-12-12T12:08:17.236Z,1021.25
2016-12-12T12:09:28.230Z,1021.3
2016-12-12T12:10:39.427Z,1021.27
2016-12-12T12:11:50.817Z,1021.28
2016-12-12T12:13:01.853Z,1021.26
2016-12-12T12:14:13.043Z,1021.23
2016-12-12T12:15:24.034Z,1021.21
2016-12-12T12:16:35.023Z,1021.25
2016-12-12T12:17:46.016Z,1021.23
2016-12-12T12:18:57.051Z,1021.26
2016-12-12T12:20:08.040Z,1021.2
2016-12-12T12:21:19.430Z,1021.23
2016-12-12T12:22:30.414Z,1021.24
2016-12-12T12:23:41.400Z,1021.25
2016-12-12T12:24:52.465Z,1021.23
2016-12-12T12:26:03.461Z,1021.23
2016-12-12T12:27:14.442Z,1021.2
2016-12-12T12:28:25.634Z,1021.19
2016-12-12T12:29:36.623Z,1021.17
2016-12-12T12:30:47.663Z,1021.21
2016-12-12T12:31:58.859Z,1021.22
2016-12-12T12:33:10.046Z,1021.21
2016-12-12T12:34:21.035Z,1021.17
2016-12-12T12:35:32.023Z,1021.2
2016-12-12T12:36:43.062Z,1021.18
2016-12-12T12:37:54.048Z,1021.17
2016-12-12T12:39:05.040Z,1021.15
2016-12-12T12:40:16.028Z,1021.13
2016-12-12T12:41:27.022Z,1021.13
2016-12-12T12:42:38.251Z,1021.12
2016-12-12T12:43:49.235Z,1021.12
2016-12-12T12:45:00.228Z,1021.08
2016-12-12T12:46:11.420Z,1021.08
2016-12-12T12:47:22.412Z,1021.09
2016-12-12T12:48:33.452Z,1021.04
2016-12-12T12:49:44.440Z,1021.05
2016-12-12T12:50:55.431Z,1021.07
2016-12-12T12:52:06.420Z,1021.05
2016-12-12T12:53:17.609Z,1021.02
2016-12-12T12:54:28.676Z,1021.06
2016-12-12T12:55:39.670Z,1021.01
2016-12-12T12:56:50.660Z,1021.04
2016-12-12T12:58:01.650Z,1021
2016-12-12T12:59:12.635Z,1021.01
2016-12-12T13:00:23.676Z,1021.03
2016-12-12T13:01:34.669Z,1021.01
2016-12-12T13:02:45.670Z,1021.02
2016-12-12T13:03:56.660Z,1021.01
2016-12-12T13:05:07.657Z,1021.03
2016-12-12T13:06:18.690Z,1021.06
2016-12-12T13:07:29.882Z,1021.01
2016-12-12T13:08:40.868Z,1021.03
2016-12-12T13:09:51.855Z,1021.06
2016-12-12T13:11:02.846Z,1021.05
2016-12-12T13:12:13.881Z,1021.07
2016-12-12T13:13:24.869Z,1021.05
2016-12-12T13:14:35.890Z,1021.04
2016-12-12T13:15:47.074Z,1021.06
2016-12-12T13:16:58.058Z,1021.04
2016-12-12T13:18:09.301Z,1021.06
2016-12-12T13:19:20.291Z,1021.09
2016-12-12T13:20:31.269Z,1021.1
2016-12-12T13:21:42.254Z,1021.06
2016-12-12T13:22:53.446Z,1021.1
2016-12-12T13:24:04.479Z,1021.11
2016-12-12T13:25:15.479Z,1021.13
2016-12-12T13:26:26.462Z,1021.16
2016-12-12T13:27:37.681Z,1021.15
2016-12-12T13:28:48.676Z,1021.15
2016-12-12T13:29:59.719Z,1021.14
2016-12-12T13:31:10.707Z,1021.14
2016-12-12T13:32:21.690Z,1021.16
2016-12-12T13:33:32.884Z,1021.14
2016-12-12T13:34:44.280Z,1021.11
2016-12-12T13:35:55.525Z,1021.13
2016-12-12T13:37:06.516Z,1021.14
2016-12-12T13:38:17.713Z,1021.17
2016-12-12T13:39:28.696Z,1021.2
2016-12-12T13:40:39.686Z,1021.22
2016-12-12T13:41:50.734Z,1021.18
2016-12-12T13:43:01.759Z,1021.18
2016-12-12T13:44:12.746Z,1021.15
2016-12-12T13:45:23.759Z,1021.16
2016-12-12T13:46:34.751Z,1021.18
2016-12-12T13:47:45.796Z,1021.18
2016-12-12T13:48:56.787Z,1021.19
2016-12-12T13:50:07.773Z,1021.17
2016-12-12T13:51:18.758Z,1021.21
2016-12-12T13:52:29.747Z,1021.19
2016-12-12T13:53:41.182Z,1021.21
2016-12-12T13:54:52.200Z,1021.18
2016-12-12T13:56:03.191Z,1021.2
2016-12-12T13:57:14.179Z,1021.25
2016-12-12T13:58:25.167Z,1021.28
2016-12-12T13:59:36.207Z,1021.28
2016-12-12T14:00:47.195Z,1021.35
2016-12-12T14:01:58.195Z,1021.3
2016-12-12T14:03:09.188Z,1021.26
2016-12-12T14:04:20.384Z,1021.3
2016-12-12T14:05:31.366Z,1021.32
2016-12-12T14:06:42.562Z,1021.31
2016-12-12T14:07:53.585Z,1021.34
2016-12-12T14:09:04.571Z,1021.36
2016-12-12T14:10:15.564Z,1021.34
2016-12-12T14:11:26.761Z,1021.38
2016-12-12T14:12:37.746Z,1021.34
2016-12-12T14:13:48.730Z,1021.31
2016-12-12T14:14:59.714Z,1021.31
2016-12-12T14:16:10.764Z,1021.32
2016-12-12T14:17:21.951Z,1021.39
2016-12-12T14:18:32.936Z,1021.38
2016-12-12T14:19:44.119Z,1021.38
2016-12-12T14:20:55.189Z,1021.38
2016-12-12T14:22:06.172Z,1021.36